Time;durP1;ratioP1;P1;durP2;ratioP2;P2;SDS_P1;SDS_P2;PMS_P1;PMS_P2;Temp;Humidity;BMP_temperature;BMP_pressure;BME280_temperature;BME280_humidity;BME280_pressure;Samples;Min_cycle;Max_cycle;Signal;HPM_P1;HPM_P2
2023/03/07 00:02:24;;;;;;;34.50;12.20;;;;;;;-148.88;94.66;75289.75;5064764;22;20122;-78
2023/03/07 00:04:50;;;;;;;34.38;13.18;;;;;;;-148.88;95.17;75322.25;5058663;28;20048;-78
2023/03/07 00:07:16;;;;;;;33.45;12.85;;;;;;;-148.88;96.08;75326.31;5060012;28;20433;-81
2023/03/07 00:09:41;;;;;;;32.47;11.60;;;;;;;-148.88;94.85;75277.59;5063060;28;20021;-80
2023/03/07 00:12:08;;;;;;;33.00;11.70;;;;;;;-148.88;95.36;75265.41;5059697;28;20048;-80
2023/03/07 00:14:34;;;;;;;28.70;11.60;;;;;;;-148.88;95.93;75297.88;5059023;28;20029;-80
2023/03/07 00:16:59;;;;;;;32.75;11.43;;;;;;;-148.88;95.63;75281.66;5060112;28;20071;-80
2023/03/07 00:19:24;;;;;;;36.72;13.80;;;;;;;-148.88;97.13;75348.66;5058132;28;20070;-79
2023/03/07 00:21:50;;;;;;;30.85;12.07;;;;;;;-148.88;95.83;75277.59;5056204;28;20032;-80
2023/03/07 00:24:15;;;;;;;31.55;12.05;;;;;;;-148.88;96.27;75277.59;5057697;28;20017;-80
2023/03/07 00:26:40;;;;;;;29.75;10.57;;;;;;;-148.88;96.20;75257.28;5057555;28;20059;-80
2023/03/07 00:29:08;;;;;;;31.60;12.13;;;;;;;-148.88;96.52;75285.69;5057730;28;20028;-80
2023/03/07 00:31:34;;;;;;;30.25;12.05;;;;;;;-148.88;96.67;75257.28;5057409;28;20107;-80
2023/03/07 00:34:00;;;;;;;30.63;11.60;;;;;;;-148.88;96.91;75261.34;5057072;28;20031;-80
2023/03/07 00:36:25;;;;;;;30.50;11.50;;;;;;;-148.88;96.30;75236.97;5060697;28;20393;-81
2023/03/07 00:38:51;;;;;;;29.83;11.80;;;;;;;-148.88;96.25;75243.06;5061557;28;20029;-81
2023/03/07 00:41:22;;;;;;;27.77;11.45;;;;;;;-148.88;96.62;75249.16;5060851;28;20047;-80
2023/03/07 00:43:48;;;;;;;32.10;12.55;;;;;;;-148.88;96.12;75204.47;5061161;28;20029;-81
2023/03/07 00:46:15;;;;;;;26.17;10.85;;;;;;;-148.88;96.92;75249.16;5060438;28;20119;-80
2023/03/07 00:48:41;;;;;;;30.67;12.05;;;;;;;-148.88;98.29;75273.53;5059490;28;20036;-80
2023/03/07 00:51:10;;;;;;;33.38;13.52;;;;;;;-148.88;98.22;75265.41;5057098;28;20028;-80
2023/03/07 00:53:36;;;;;;;29.02;10.88;;;;;;;-148.88;98.55;75236.97;5057300;28;20103;-80
2023/03/07 00:56:03;;;;;;;33.08;12.98;;;;;;;-148.88;99.63;75279.59;5056806;28;20028;-80
2023/03/07 00:58:30;;;;;;;28.67;11.02;;;;;;;-148.88;99.12;75232.91;5056661;28;20482;-80
2023/03/07 01:00:56;;;;;;;28.75;11.70;;;;;;;-148.88;99.77;75241.03;5056855;28;20036;-80
2023/03/07 01:03:23;;;;;;;28.70;12.20;;;;;;;-148.88;99.21;75241.03;5056227;28;20025;-80
2023/03/07 01:05:49;;;;;;;34.38;12.20;;;;;;;-148.88;99.30;75216.66;5056704;28;20115;-80
2023/03/07 01:08:15;;;;;;;31.40;12.52;;;;;;;-148.88;98.73;75220.72;5054612;28;20020;-80
2023/03/07 01:10:40;;;;;;;30.58;12.13;;;;;;;-148.88;100.00;75251.19;5055955;28;20021;-80
2023/03/07 01:13:06;;;;;;;36.90;13.77;;;;;;;-148.88;100.00;75228.84;5058601;28;20036;-80
2023/03/07 01:15:32;;;;;;;32.83;13.80;;;;;;;-148.88;100.00;75241.03;5059203;28;20021;-80
2023/03/07 01:17:57;;;;;;;35.30;13.95;;;;;;;-148.88;100.00;75220.72;5061209;28;20029;-81
2023/03/07 01:20:22;;;;;;;33.72;13.48;;;;;;;-148.88;99.95;75220.72;5060913;28;20032;-80
2023/03/07 01:22:48;;;;;;;31.20;12.65;;;;;;;-148.88;100.00;75232.91;5058374;28;20021;-80
2023/03/07 01:25:13;;;;;;;33.92;13.15;;;;;;;-148.88;99.52;75196.34;5059296;28;20032;-80
2023/03/07 01:27:39;;;;;;;32.17;12.38;;;;;;;-148.88;99.63;75198.38;5057678;28;20441;-80
2023/03/07 01:30:06;;;;;;;34.75;13.40;;;;;;;-148.88;99.76;75202.44;5056682;28;20025;-80
2023/03/07 01:32:31;;;;;;;33.63;13.90;;;;;;;-148.88;100.00;75210.56;5057456;28;20053;-80
2023/03/07 01:34:57;;;;;;;32.70;14.52;;;;;;;-148.88;100.00;75228.84;5058280;28;20024;-80
2023/03/07 01:37:22;;;;;;;36.40;15.57;;;;;;;-148.88;100.00;75245.09;5058179;28;20435;-80
2023/03/07 01:39:51;;;;;;;31.60;12.63;;;;;;;-148.88;100.00;75202.44;5057789;28;20082;-80
2023/03/07 01:42:16;;;;;;;31.67;12.93;;;;;;;-148.88;100.00;75200.41;5055755;28;20100;-79
2023/03/07 01:45:00;;;;;;;30.23;13.20;;;;;;;-148.88;100.00;75198.38;5055412;28;20025;-79
2023/03/07 01:47:25;;;;;;;33.83;13.40;;;;;;;-148.88;100.00;75230.88;5054843;28;20021;-80
2023/03/07 01:49:51;;;;;;;33.15;12.27;;;;;;;-148.88;100.00;75210.56;5058786;28;20067;-80
2023/03/07 01:52:20;;;;;;;33.25;12.93;;;;;;;-148.88;100.00;75204.47;5058187;28;20017;-80
2023/03/07 01:54:56;;;;;;;34.38;13.20;;;;;;;-148.88;100.00;75192.28;5058686;28;20075;-81
2023/03/07 01:57:26;;;;;;;30.00;12.30;;;;;;;-148.88;100.00;75218.69;5058215;28;20025;-80
2023/03/07 01:59:54;;;;;;;32.63;12.32;;;;;;;-148.88;100.00;75200.41;5056961;28;20478;-81
2023/03/07 02:02:21;;;;;;;36.42;13.35;;;;;;;-148.88;100.00;75192.28;5057721;28;20366;-81
2023/03/07 02:05:02;;;;;;;34.10;13.57;;;;;;;-148.88;100.00;75190.25;5057681;28;20021;-81
2023/03/07 02:07:33;;;;;;;34.17;14.18;;;;;;;-148.88;100.00;75159.78;5057361;28;20095;-81
2023/03/07 02:10:00;;;;;;;33.92;13.18;;;;;;;-148.88;100.00;75186.19;5056301;28;20032;-80
2023/03/07 02:12:26;;;;;;;35.00;14.73;;;;;;;-148.88;100.00;75180.09;5057790;28;20029;-81
2023/03/07 02:14:51;;;;;;;37.33;16.00;;;;;;;-148.88;100.00;75196.34;5058130;28;20052;-81
2023/03/07 02:17:17;;;;;;;35.83;13.30;;;;;;;-148.88;100.00;75143.53;5056728;28;20086;-81
2023/03/07 02:19:59;;;;;;;32.60;14.10;;;;;;;-148.88;100.00;75176.03;5058663;28;20016;-81
2023/03/07 02:22:25;;;;;;;35.40;14.82;;;;;;;-148.88;100.00;75167.91;5056566;28;20436;-80
2023/03/07 02:24:57;;;;;;;36.90;14.73;;;;;;;-148.88;100.00;75182.13;5057096;28;20478;-81
2023/03/07 02:27:30;;;;;;;33.97;13.43;;;;;;;-148.88;100.00;75147.59;5059790;28;20036;-81
2023/03/07 02:29:55;;;;;;;39.05;13.50;;;;;;;-148.88;100.00;75155.72;5057936;28;20028;-80
2023/03/07 02:32:20;;;;;;;34.65;13.63;;;;;;;-148.88;100.00;75123.22;5054180;28;20079;-81
2023/03/07 02:34:46;;;;;;;38.15;14.30;;;;;;;-148.88;100.00;75123.22;5055573;28;20021;-81
2023/03/07 02:37:39;;;;;;;33.63;13.13;;;;;;;-148.88;100.00;75115.09;5055351;28;20029;-80
2023/03/07 02:40:11;;;;;;;33.80;14.23;;;;;;;-148.88;100.00;75131.34;5050515;28;20060;-80
2023/03/07 02:42:40;;;;;;;35.38;12.65;;;;;;;-148.88;100.00;75117.13;5054433;28;20075;-81
2023/03/07 02:45:09;;;;;;;33.50;12.82;;;;;;;-148.88;100.00;75102.91;5056223;28;20078;-81
2023/03/07 02:47:34;;;;;;;27.83;11.68;;;;;;;-148.88;100.00;75109.00;5054433;28;20025;-80
2023/03/07 02:49:59;;;;;;;29.60;12.25;;;;;;;-148.88;100.00;75123.22;5054804;28;20025;-81
2023/03/07 02:52:27;;;;;;;29.25;13.02;;;;;;;-148.88;100.00;75102.91;5054804;28;20024;-81
2023/03/07 02:54:52;;;;;;;27.08;11.35;;;;;;;-148.88;100.00;75084.66;5056158;28;20082;-80
2023/03/07 02:57:18;;;;;;;26.33;10.32;;;;;;;-148.88;100.00;75106.97;5055895;28;20112;-80
2023/03/07 02:59:46;;;;;;;25.05;11.45;;;;;;;-148.88;100.00;75129.31;5058843;28;20051;-78
2023/03/07 03:02:11;;;;;;;24.48;11.07;;;;;;;-148.88;100.00;75111.03;5067462;28;20028;-80
2023/03/07 03:04:36;;;;;;;28.35;10.75;;;;;;;-148.88;100.00;75088.72;5057267;28;20091;-79
2023/03/07 03:07:02;;;;;;;26.65;11.07;;;;;;;-148.88;100.00;75088.72;5055938;28;20025;-79
2023/03/07 03:09:27;;;;;;;23.95;9.38;;;;;;;-148.88;100.00;75082.63;5056081;28;20053;-77
2023/03/07 03:11:52;;;;;;;27.02;10.95;;;;;;;-148.88;100.00;75050.13;5054798;28;20017;-78
2023/03/07 03:14:18;;;;;;;26.08;11.95;;;;;;;-148.88;100.00;75082.63;5056056;28;20029;-78
2023/03/07 03:16:43;;;;;;;19.42;8.98;;;;;;;-148.88;100.00;75086.69;5055773;28;20021;-77
2023/03/07 03:19:08;;;;;;;25.55;11.07;;;;;;;-148.88;100.00;75088.72;5054358;28;20056;-78
2023/03/07 03:21:34;;;;;;;24.88;10.10;;;;;;;-148.88;100.00;75066.38;5056580;28;20466;-78
2023/03/07 03:24:06;;;;;;;24.40;10.20;;;;;;;-148.88;100.00;75062.31;5055179;28;20017;-77
2023/03/07 03:26:33;;;;;;;28.50;10.70;;;;;;;-148.88;100.00;75025.75;5054015;28;20024;-78
2023/03/07 03:28:59;;;;;;;24.15;9.57;;;;;;;-148.88;100.00;75029.81;5055519;28;20025;-78
2023/03/07 03:31:24;;;;;;;26.23;9.27;;;;;;;-148.88;100.00;75025.75;5054103;28;20044;-77
2023/03/07 03:33:51;;;;;;;26.00;10.68;;;;;;;-148.88;100.00;75031.84;5053726;28;20025;-78
2023/03/07 03:36:17;;;;;;;24.67;10.15;;;;;;;-148.88;100.00;75017.63;5053702;28;20021;-77
2023/03/07 03:38:43;;;;;;;26.50;10.65;;;;;;;-148.88;100.00;75039.97;5053959;28;20056;-77
2023/03/07 03:41:16;;;;;;;22.77;9.52;;;;;;;-148.88;100.00;75102.91;5052660;28;20121;-77
2023/03/07 03:43:42;;;;;;;18.27;8.13;;;;;;;-148.88;100.00;75090.72;5051749;28;20021;-77
2023/03/07 03:46:07;;;;;;;12.35;5.47;;;;;;;-148.88;100.00;75086.69;5051703;28;20028;-77
2023/03/07 03:48:32;;;;;;;10.98;5.28;;;;;;;-148.88;100.00;75102.91;5051807;28;20075;-77
2023/03/07 03:51:03;;;;;;;12.60;5.35;;;;;;;-148.88;100.00;75106.97;5051789;28;20140;-77
2023/03/07 03:53:30;;;;;;;10.07;4.18;;;;;;;-148.88;100.00;75102.91;5052900;28;20024;-77
2023/03/07 03:56:10;;;;;;;11.50;4.82;;;;;;;-148.88;100.00;75074.50;5054740;28;20035;-77
2023/03/07 03:58:37;;;;;;;13.07;5.10;;;;;;;-148.88;100.00;75066.38;5053862;28;20102;-77
2023/03/07 04:01:04;;;;;;;11.07;5.03;;;;;;;-148.88;100.00;75054.19;5053763;28;20017;-77
2023/03/07 04:03:51;;;;;;;12.00;6.05;;;;;;;-148.88;100.00;75054.19;5054133;28;20128;-77
2023/03/07 04:06:22;;;;;;;15.75;6.80;;;;;;;-148.88;100.00;75066.38;5054805;28;20041;-77
2023/03/07 04:08:48;;;;;;;19.38;7.82;;;;;;;-148.88;100.00;75017.63;5056189;28;20021;-77
2023/03/07 04:11:13;;;;;;;18.42;7.68;;;;;;;-148.88;100.00;75050.13;5057887;28;20048;-78
2023/03/07 04:13:39;;;;;;;14.10;6.50;;;;;;;-148.88;100.00;75017.63;5058251;28;20017;-78
2023/03/07 04:16:04;;;;;;;17.73;8.18;;;;;;;-148.88;100.00;75062.31;5058121;28;20032;-77
2023/03/07 04:18:30;;;;;;;13.38;6.60;;;;;;;-148.88;100.00;75025.75;5061584;28;20032;-77
2023/03/07 04:20:55;;;;;;;17.40;7.15;;;;;;;-148.88;100.00;75013.56;5060937;28;20052;-77
2023/03/07 04:23:23;;;;;;;18.45;7.63;;;;;;;-148.88;100.00;75013.56;5060827;28;20111;-77
2023/03/07 04:25:56;;;;;;;23.85;8.13;;;;;;;-148.88;100.00;75005.44;5060006;28;20029;-78
2023/03/07 04:28:23;;;;;;;19.17;7.60;;;;;;;-148.88;100.00;75009.50;5058617;28;20032;-77
2023/03/07 04:30:48;;;;;;;18.67;7.32;;;;;;;-148.88;100.00;74981.06;5060981;28;20254;-77
2023/03/07 04:33:15;;;;;;;20.50;8.88;;;;;;;-148.88;100.00;75050.13;5061336;28;20031;-77
2023/03/07 04:35:41;;;;;;;17.17;8.63;;;;;;;-148.88;100.00;75074.50;5060289;28;20025;-78
2023/03/07 04:38:06;;;;;;;10.30;4.40;;;;;;;-148.88;100.00;75147.59;5055690;28;20028;-78
2023/03/07 04:40:33;;;;;;;7.38;3.55;;;;;;;-148.88;100.00;75117.13;5057139;28;20052;-78
2023/03/07 04:42:59;;;;;;;12.88;4.13;;;;;;;-148.88;100.00;75098.84;5060444;28;20021;-78
2023/03/07 04:45:24;;;;;;;7.70;3.67;;;;;;;-148.88;100.00;75147.59;5062461;28;20057;-78
2023/03/07 04:47:49;;;;;;;7.57;3.25;;;;;;;-148.88;100.00;75133.38;5061919;28;20047;-78
2023/03/07 04:50:19;;;;;;;7.00;3.17;;;;;;;-148.88;100.00;75094.81;5058029;28;20070;-77
2023/03/07 04:52:44;;;;;;;8.88;4.00;;;;;;;-148.88;100.00;75100.88;5059204;28;20043;-77
2023/03/07 04:55:10;;;;;;;7.20;3.38;;;;;;;-148.88;100.00;75084.66;5059943;28;20029;-77
2023/03/07 04:57:35;;;;;;;9.30;3.53;;;;;;;-148.88;100.00;75074.50;5059746;28;20025;-78
2023/03/07 05:00:01;;;;;;;6.43;2.75;;;;;;;-148.88;100.00;75102.91;5058929;28;20021;-77
2023/03/07 05:02:27;;;;;;;10.57;3.75;;;;;;;-148.88;100.00;75086.69;5058953;28;20066;-78
2023/03/07 05:04:52;;;;;;;9.63;4.00;;;;;;;-148.88;100.00;75111.03;5059810;28;20111;-78
2023/03/07 05:07:17;;;;;;;7.32;3.72;;;;;;;-148.88;100.00;75078.56;5059885;28;20024;-78
2023/03/07 05:09:43;;;;;;;11.63;4.43;;;;;;;-148.88;100.00;75050.13;5060313;28;20025;-77
2023/03/07 05:12:09;;;;;;;7.80;4.20;;;;;;;-148.88;100.00;75062.31;5060627;28;20020;-78
2023/03/07 05:14:34;;;;;;;13.48;5.35;;;;;;;-148.88;100.00;75058.25;5061294;28;20082;-77
2023/03/07 05:16:59;;;;;;;10.23;4.50;;;;;;;-148.88;100.00;75046.06;5061615;28;20505;-78
2023/03/07 05:19:25;;;;;;;11.20;5.25;;;;;;;-148.88;100.00;75035.91;5061610;28;20025;-78
2023/03/07 05:21:51;;;;;;;12.32;5.22;;;;;;;-148.88;100.00;75025.75;5061764;28;20394;-78
2023/03/07 05:24:16;;;;;;;12.45;4.38;;;;;;;-148.88;99.78;75042.00;5058236;28;20453;-77
2023/03/07 05:26:42;;;;;;;9.98;4.57;;;;;;;-148.88;99.76;75035.91;5054957;28;20025;-77
2023/03/07 05:29:07;;;;;;;10.10;3.97;;;;;;;-148.88;98.36;75021.69;5056607;28;20102;-77
2023/03/07 05:31:32;;;;;;;9.18;3.97;;;;;;;-148.88;99.12;75029.81;5056281;28;20116;-77
2023/03/07 05:33:58;;;;;;;8.70;3.78;;;;;;;-148.88;98.27;75021.69;5056577;28;20053;-77
2023/03/07 05:36:23;;;;;;;11.13;4.18;;;;;;;-148.88;99.28;75042.00;5058095;28;20040;-77
2023/03/07 05:38:49;;;;;;;12.82;4.10;;;;;;;-148.88;100.00;75070.44;5055885;28;20070;-78
2023/03/07 05:41:14;;;;;;;9.50;3.72;;;;;;;-148.88;100.00;75082.63;5056293;28;20082;-77
2023/03/07 05:43:39;;;;;;;10.35;4.05;;;;;;;-148.88;100.00;75074.50;5055715;28;20023;-78
2023/03/07 05:46:05;;;;;;;9.05;3.60;;;;;;;-148.88;99.50;75066.38;5054972;28;20073;-77
2023/03/07 05:48:32;;;;;;;9.88;3.25;;;;;;;-148.88;98.63;75066.38;5057988;28;20466;-77
2023/03/07 05:50:59;;;;;;;14.23;3.65;;;;;;;-148.88;96.52;75037.94;5058704;28;20032;-78
2023/03/07 05:53:25;;;;;;;8.18;2.95;;;;;;;-148.88;97.13;75060.28;5058769;28;20497;-77
2023/03/07 05:55:50;;;;;;;13.27;3.33;;;;;;;-148.88;98.03;75109.00;5059932;28;20021;-78
2023/03/07 05:58:15;;;;;;;6.82;3.67;;;;;;;-148.88;97.71;75090.72;5058596;28;20033;-77
2023/03/07 06:00:41;;;;;;;7.57;2.65;;;;;;;-148.88;97.00;75084.66;5056129;28;20103;-76
2023/03/07 06:03:06;;;;;;;7.30;2.78;;;;;;;-148.88;97.21;75082.63;5055699;28;20068;-76
2023/03/07 06:05:31;;;;;;;11.57;3.03;;;;;;;-148.88;95.83;75050.13;5054372;28;20135;-77
2023/03/07 06:07:57;;;;;;;11.32;3.40;;;;;;;-148.88;95.67;75056.22;5053919;28;20124;-77
2023/03/07 06:10:22;;;;;;;7.00;2.50;;;;;;;-148.88;95.91;75054.19;5055187;28;20025;-77
2023/03/07 06:12:53;;;;;;;6.90;2.35;;;;;;;-148.88;95.72;75068.41;5056555;28;20021;-77
2023/03/07 06:15:20;;;;;;;7.32;2.58;;;;;;;-148.88;95.45;75042.00;5058199;28;20094;-77
2023/03/07 06:17:46;;;;;;;7.22;2.50;;;;;;;-148.88;97.38;75086.69;5058052;28;20470;-77
2023/03/07 06:20:15;;;;;;;5.93;2.35;;;;;;;-148.88;97.50;75094.81;5058528;28;20028;-77
2023/03/07 06:22:41;;;;;;;4.75;2.10;;;;;;;-148.88;96.32;75074.50;5057956;28;20381;-77
2023/03/07 06:25:07;;;;;;;6.68;2.38;;;;;;;-148.88;96.59;75090.72;5057711;28;20529;-78
2023/03/07 06:27:34;;;;;;;5.28;1.98;;;;;;;-148.88;96.05;75058.25;5056662;28;20029;-78
2023/03/07 06:30:01;;;;;;;8.38;2.67;;;;;;;-148.88;95.74;75058.25;5056759;28;20063;-78
2023/03/07 06:32:27;;;;;;;5.88;1.90;;;;;;;-148.88;95.52;75070.44;5058526;28;20071;-78
2023/03/07 06:34:52;;;;;;;12.45;2.28;;;;;;;-148.88;94.66;75039.97;5056733;28;20025;-78
2023/03/07 06:37:17;;;;;;;6.70;2.22;;;;;;;-148.88;93.21;75003.41;5056961;28;20021;-78
2023/03/07 06:39:43;;;;;;;5.43;2.13;;;;;;;-148.88;93.34;75001.38;5059285;28;20017;-80
2023/03/07 06:42:08;;;;;;;6.97;2.08;;;;;;;-148.88;93.07;74997.31;5064973;28;20083;-81
2023/03/07 06:44:34;;;;;;;7.78;2.35;;;;;;;-148.88;93.66;75027.78;5059031;28;20021;-81
2023/03/07 06:46:59;;;;;;;7.43;2.35;;;;;;;-148.88;93.38;75019.66;5054761;28;20025;-80
2023/03/07 06:49:24;;;;;;;7.13;2.35;;;;;;;-148.88;93.96;75046.06;5054816;28;20111;-81
2023/03/07 06:51:50;;;;;;;6.65;2.10;;;;;;;-148.88;94.69;75054.19;5056106;28;20504;-81
2023/03/07 06:54:15;;;;;;;5.82;2.00;;;;;;;-148.88;94.60;75068.41;5054580;28;20033;-80
2023/03/07 06:56:41;;;;;;;8.45;2.30;;;;;;;-148.88;94.15;75029.81;5055369;28;20071;-80
2023/03/07 06:59:06;;;;;;;7.47;2.88;;;;;;;-148.88;94.82;75044.03;5054175;28;20031;-80
2023/03/07 07:01:34;;;;;;;10.23;3.65;;;;;;;-148.88;95.81;75068.41;5054493;28;20079;-81
2023/03/07 07:03:59;;;;;;;4.78;1.98;;;;;;;-148.88;95.59;75042.00;5055300;28;20029;-80
2023/03/07 07:06:25;;;;;;;6.25;2.53;;;;;;;-148.88;96.13;75064.34;5055416;28;20458;-81
2023/03/07 07:08:54;;;;;;;8.45;3.05;;;;;;;-148.88;96.98;75060.28;5054603;28;20025;-80
2023/03/07 07:11:19;;;;;;;10.85;3.08;;;;;;;-148.88;97.76;75098.84;5055098;28;20032;-80
2023/03/07 07:13:44;;;;;;;6.43;2.55;;;;;;;-148.88;99.06;75137.44;5054436;28;20017;-80
2023/03/07 07:16:10;;;;;;;9.55;2.88;;;;;;;-148.88;97.43;75094.81;5055411;28;20024;-81
2023/03/07 07:18:35;;;;;;;7.57;3.35;;;;;;;-148.88;97.60;75102.91;5070530;28;20044;-80
2023/03/07 07:21:01;;;;;;;6.85;3.20;;;;;;;-148.88;97.32;75096.81;5060787;28;20028;-81
2023/03/07 07:23:26;;;;;;;8.50;2.90;;;;;;;-148.88;96.64;75078.56;5058962;28;20036;-81
2023/03/07 07:25:52;;;;;;;9.90;3.15;;;;;;;-148.88;97.16;75092.78;5055733;28;20056;-81
2023/03/07 07:28:17;;;;;;;6.22;2.60;;;;;;;-148.88;97.49;75094.81;5053748;28;20024;-80
2023/03/07 07:30:43;;;;;;;8.75;3.67;;;;;;;-148.88;96.21;75054.19;5054023;28;20025;-81
2023/03/07 07:33:08;;;;;;;8.10;3.10;;;;;;;-148.88;97.60;75119.16;5054160;28;20119;-81
2023/03/07 07:35:33;;;;;;;7.82;3.28;;;;;;;-148.88;97.72;75115.09;5054309;28;20025;-80
2023/03/07 07:37:58;;;;;;;7.95;2.97;;;;;;;-148.88;98.20;75129.31;5054317;28;20445;-81
2023/03/07 07:40:24;;;;;;;6.13;2.47;;;;;;;-148.88;96.54;75129.31;5056163;28;20071;-81
2023/03/07 07:42:53;;;;;;;8.35;2.30;;;;;;;-148.88;96.32;75143.53;5053572;28;20034;-80
2023/03/07 07:45:22;;;;;;;6.05;2.08;;;;;;;-148.88;96.53;75135.41;5051919;28;20028;-80
2023/03/07 07:47:49;;;;;;;5.32;1.98;;;;;;;-148.88;96.79;75135.41;5053060;28;20025;-80
2023/03/07 07:50:19;;;;;;;6.90;2.05;;;;;;;-148.88;96.61;75147.59;5053491;28;20391;-80
2023/03/07 07:52:45;;;;;;;5.63;1.95;;;;;;;-148.88;95.89;75167.91;5055563;28;20025;-80
2023/03/07 07:55:13;;;;;;;6.75;2.17;;;;;;;-148.88;95.72;75147.59;5058294;28;20478;-81
2023/03/07 07:57:38;;;;;;;6.45;2.63;;;;;;;-148.88;95.43;75169.94;5059810;28;20075;-81
2023/03/07 08:00:04;;;;;;;6.90;1.80;;;;;;;-148.88;96.01;75186.19;5059352;28;20029;-81
2023/03/07 08:02:29;;;;;;;6.38;2.35;;;;;;;-148.88;97.00;75204.47;5059079;28;20436;-81
2023/03/07 08:04:55;;;;;;;8.43;2.97;;;;;;;-148.88;97.34;75220.72;5059405;28;20025;-81
2023/03/07 08:07:22;;;;;;;6.07;2.05;;;;;;;-148.88;100.00;75314.13;5058012;28;20052;-81
2023/03/07 08:09:48;;;;;;;7.53;2.47;;;;;;;-148.88;99.06;75299.91;5060788;28;20104;-80
2023/03/07 08:12:13;;;;;;;6.18;1.25;;;;;;;-148.88;100.00;75340.53;5061217;28;20068;-81
2023/03/07 08:14:39;;;;;;;5.95;1.80;;;;;;;-148.88;99.69;75318.19;5058563;28;20497;-81
2023/03/07 08:17:04;;;;;;;7.50;1.45;;;;;;;-148.88;100.00;75375.06;5057034;28;20049;-80
2023/03/07 08:19:30;;;;;;;4.35;1.35;;;;;;;-148.88;100.00;75342.56;5056089;28;20079;-80
2023/03/07 08:21:55;;;;;;;5.03;1.63;;;;;;;-148.88;99.91;75291.78;5057343;28;20100;-80
2023/03/07 08:24:21;;;;;;;6.85;1.73;;;;;;;-148.88;99.62;75348.66;5055938;28;20029;-80
2023/03/07 08:26:46;;;;;;;4.88;1.42;;;;;;;-148.88;99.96;75316.16;5055785;28;20056;-80
2023/03/07 08:29:12;;;;;;;3.13;1.35;;;;;;;-148.88;99.29;75322.25;5055101;28;20047;-80
2023/03/07 08:31:38;;;;;;;4.32;1.42;;;;;;;-148.88;98.99;75277.59;5055910;28;20033;-80
2023/03/07 08:34:03;;;;;;;4.80;1.63;;;;;;;-148.88;98.63;75279.59;5058425;28;20021;-80
2023/03/07 08:36:28;;;;;;;5.63;2.03;;;;;;;-148.88;98.09;75277.59;5058963;28;20033;-81
2023/03/07 08:38:54;;;;;;;5.28;1.38;;;;;;;-148.88;98.55;75306.00;5058566;28;20475;-81
2023/03/07 08:41:21;;;;;;;4.35;1.75;;;;;;;-148.88;97.72;75273.53;5058534;28;20516;-80
2023/03/07 08:43:46;;;;;;;4.53;1.98;;;;;;;-148.88;98.31;75295.84;5071902;22;20139;-77
2023/03/07 08:46:12;;;;;;;6.88;1.27;;;;;;;-148.88;98.04;75273.53;5077578;28;20466;-76
2023/03/07 08:48:37;;;;;;;4.22;1.40;;;;;;;-148.88;98.03;75297.88;5059297;28;20043;-77
2023/03/07 08:51:08;;;;;;;4.28;2.00;;;;;;;-148.88;99.25;75303.97;5060085;28;20138;-77
2023/03/07 08:53:34;;;;;;;4.93;2.05;;;;;;;-148.88;98.67;75293.81;5059760;28;20115;-77
2023/03/07 08:55:59;;;;;;;6.18;2.58;;;;;;;-148.88;98.75;75310.06;5077527;28;20101;-77
2023/03/07 08:58:24;;;;;;;5.80;1.75;;;;;;;-148.88;98.35;75297.88;5059442;28;20035;-76
2023/03/07 09:00:49;;;;;;;4.82;2.47;;;;;;;-148.88;98.49;75301.94;5057791;28;20486;-77
2023/03/07 09:03:15;;;;;;;5.68;2.15;;;;;;;-148.88;98.08;75293.81;5075650;28;20024;-77
2023/03/07 09:05:40;;;;;;;4.70;2.10;;;;;;;-148.88;97.94;75283.66;5057667;28;20450;-76
2023/03/07 09:08:06;;;;;;;6.47;2.40;;;;;;;-148.88;99.36;75314.13;5057864;28;20433;-77
2023/03/07 09:10:32;;;;;;;7.25;2.30;;;;;;;-148.88;99.33;75291.78;5075211;28;20024;-77
2023/03/07 09:12:58;;;;;;;4.85;2.53;;;;;;;-148.88;99.18;75308.03;5075186;28;20486;-77
2023/03/07 09:15:24;;;;;;;8.35;2.58;;;;;;;-148.88;99.10;75348.66;5057797;28;20054;-77
2023/03/07 09:17:49;;;;;;;5.28;2.10;;;;;;;-148.88;99.88;75318.19;5057245;28;20544;-77
2023/03/07 09:20:15;;;;;;;3.45;1.60;;;;;;;-148.88;99.98;75322.25;5057269;28;20028;-77
2023/03/07 09:22:40;;;;;;;4.43;1.60;;;;;;;-148.88;100.00;75334.44;5077138;28;20021;-77
2023/03/07 09:25:06;;;;;;;5.65;2.03;;;;;;;-148.88;99.97;75326.31;5077538;28;20049;-76
2023/03/07 09:27:31;;;;;;;3.92;1.65;;;;;;;-148.88;100.00;75316.16;5058971;28;20029;-77
2023/03/07 09:29:56;;;;;;;6.38;2.30;;;;;;;-148.88;100.00;75356.78;5076134;28;20468;-77
2023/03/07 09:32:22;;;;;;;4.63;2.28;;;;;;;-148.88;100.00;75342.56;5058337;28;20159;-77
2023/03/07 09:34:47;;;;;;;5.65;2.03;;;;;;;-148.88;100.00;75346.63;5076199;28;20521;-77
2023/03/07 09:37:13;;;;;;;7.65;1.90;;;;;;;-148.88;99.64;75338.50;5057898;28;20039;-77
2023/03/07 09:39:38;;;;;;;6.57;2.03;;;;;;;-148.88;100.00;75360.84;5075460;28;20024;-77
2023/03/07 09:42:33;;;;;;;5.47;1.75;;;;;;;-148.88;100.00;75371.00;5075267;28;20380;-77
2023/03/07 09:45:22;;;;;;;7.85;2.25;;;;;;;-148.88;100.00;75399.44;5052030;28;20086;-77
2023/03/07 09:48:18;;;;;;;4.22;1.70;;;;;;;-148.88;100.00;75364.91;5074657;28;20032;-77
2023/03/07 09:50:52;;;;;;;3.58;1.77;;;;;;;-148.88;100.00;75373.03;5074685;28;20059;-77
2023/03/07 09:53:26;;;;;;;;;;;;;;;-148.88;100.00;75328.34;5056890;28;20020;-77
2023/03/07 09:55:56;;;;;;;3.17;1.50;;;;;;;-148.88;100.00;75328.34;5056751;28;19916;-77
2023/03/07 09:58:24;;;;;;;3.83;1.30;;;;;;;-148.88;100.00;75342.56;5075586;28;20562;-77
2023/03/07 10:00:56;;;;;;;4.85;1.50;;;;;;;-148.88;99.57;75334.44;5058528;28;20024;-77
2023/03/07 10:03:53;;;;;;;6.10;2.53;;;;;;;-148.88;99.92;75348.66;5076586;28;20053;-77
2023/03/07 10:06:31;;;;;;;4.93;2.00;;;;;;;-148.88;100.00;75381.16;5075780;28;20032;-77
2023/03/07 10:08:58;;;;;;;7.22;2.20;;;;;;;-148.88;99.85;75350.69;5057857;28;20028;-77
2023/03/07 10:11:23;;;;;;;6.07;2.22;;;;;;;-148.88;99.86;75358.81;5074474;28;20028;-77
2023/03/07 10:13:57;;;;;;;6.88;2.35;;;;;;;-148.88;99.13;75330.38;5056120;28;20074;-77
2023/03/07 10:16:44;;;;;;;4.10;1.80;;;;;;;-148.88;99.56;75366.94;5074888;28;20565;-77
2023/03/07 10:19:24;;;;;;;4.63;1.88;;;;;;;-148.88;98.97;75310.06;5074754;28;20028;-77
2023/03/07 10:22:34;;;;;;;6.70;2.65;;;;;;;-148.88;99.08;75306.00;5057468;28;20025;-78
2023/03/07 10:25:23;;;;;;;4.80;2.75;;;;;;;-148.88;99.50;75366.94;5063401;28;20035;-77
2023/03/07 10:27:53;;;;;;;8.02;2.70;;;;;;;-148.88;100.00;75395.38;5059751;28;20433;-80
2023/03/07 10:30:19;;;;;;;4.80;2.33;;;;;;;-148.88;100.00;75405.53;5059900;28;20028;-79
2023/03/07 10:32:58;;;;;;;5.25;1.80;;;;;;;-148.88;100.00;75326.31;5059047;28;20021;-79
2023/03/07 10:35:47;;;;;;;8.35;2.45;;;;;;;-148.88;98.89;75310.06;5078624;28;20123;-78
2023/03/07 10:38:41;;;;;;;4.95;2.33;;;;;;;-148.88;98.87;75334.44;5062051;28;20035;-80
2023/03/07 10:41:16;;;;;;;7.35;3.22;;;;;;;-148.88;99.42;75322.25;5079811;28;20028;-79
2023/03/07 10:43:43;;;;;;;9.82;3.58;;;;;;;-148.88;98.72;75330.38;5060237;28;20064;-79
2023/03/07 10:46:17;;;;;;;5.28;2.30;;;;;;;-148.88;99.35;75340.53;5060465;28;20052;-79
2023/03/07 10:48:47;;;;;;;5.72;2.10;;;;;;;-148.88;99.34;75348.66;5077766;28;20051;-79
2023/03/07 10:51:37;;;;;;;6.50;2.30;;;;;;;-148.88;99.70;75328.34;5077382;28;20032;-79
2023/03/07 10:54:14;;;;;;;6.35;2.28;;;;;;;-148.88;98.89;75297.88;5077385;28;20020;-80
2023/03/07 10:56:39;;;;;;;3.78;1.77;;;;;;;-148.88;99.12;75301.94;5077031;28;20451;-79
2023/03/07 10:59:09;;;;;;;4.20;1.98;;;;;;;-148.88;98.95;75263.38;5058453;28;20482;-79
2023/03/07 11:01:36;;;;;;;5.30;2.10;;;;;;;-148.88;98.17;75232.91;5077396;28;20024;-80
2023/03/07 11:04:18;;;;;;;9.30;3.47;;;;;;;-148.88;98.31;75243.06;5076432;28;20023;-79
2023/03/07 11:06:52;;;;;;;8.00;3.58;;;;;;;-148.88;98.65;75241.03;5076122;28;20024;-79
2023/03/07 11:09:31;;;;;;;11.73;3.90;;;;;;;-148.88;98.90;75301.94;5075391;28;20031;-78
2023/03/07 11:11:56;;;;;;;5.78;2.92;;;;;;;-148.88;99.13;75257.28;5079013;28;20020;-78